sensor_id;sensor_type;location;lat;lon;timestamp;P1;durP1;ratioP1;P2;durP2;ratioP2
75649;SDS011;64245;51.282;22.494;2023-05-10T00:01:37;3.38;;;1.88;;
75649;SDS011;64245;51.282;22.494;2023-05-10T00:04:03;3.35;;;1.75;;
75649;SDS011;64245;51.282;22.494;2023-05-10T00:06:29;4.18;;;1.90;;
75649;SDS011;64245;51.282;22.494;2023-05-10T00:08:55;5.57;;;1.70;;
75649;SDS011;64245;51.282;22.494;2023-05-10T00:11:21;3.28;;;1.70;;
75649;SDS011;64245;51.282;22.494;2023-05-10T00:13:46;3.47;;;2.00;;
75649;SDS011;64245;51.282;22.494;2023-05-10T00:16:12;3.13;;;2.10;;
75649;SDS011;64245;51.282;22.494;2023-05-10T00:18:39;3.63;;;1.67;;
75649;SDS011;64245;51.282;22.494;2023-05-10T00:21:04;3.50;;;1.70;;
75649;SDS011;64245;51.282;22.494;2023-05-10T00:23:30;4.57;;;1.98;;
75649;SDS011;64245;51.282;22.494;2023-05-10T00:25:56;2.80;;;1.63;;
75649;SDS011;64245;51.282;22.494;2023-05-10T00:28:22;3.63;;;1.90;;
75649;SDS011;64245;51.282;22.494;2023-05-10T00:30:47;5.72;;;1.90;;
75649;SDS011;64245;51.282;22.494;2023-05-10T00:33:16;2.70;;;1.92;;
75649;SDS011;64245;51.282;22.494;2023-05-10T00:35:41;5.53;;;2.45;;
75649;SDS011;64245;51.282;22.494;2023-05-10T00:38:07;4.13;;;2.00;;
75649;SDS011;64245;51.282;22.494;2023-05-10T00:40:35;2.83;;;1.70;;
75649;SDS011;64245;51.282;22.494;2023-05-10T00:43:01;5.13;;;1.90;;
75649;SDS011;64245;51.282;22.494;2023-05-10T00:45:26;3.42;;;1.65;;
75649;SDS011;64245;51.282;22.494;2023-05-10T00:47:52;2.45;;;1.65;;
75649;SDS011;64245;51.282;22.494;2023-05-10T00:50:20;3.60;;;1.80;;
75649;SDS011;64245;51.282;22.494;2023-05-10T00:52:49;6.30;;;1.80;;
75649;SDS011;64245;51.282;22.494;2023-05-10T00:55:15;3.95;;;1.85;;
75649;SDS011;64245;51.282;22.494;2023-05-10T00:57:41;2.72;;;1.83;;
75649;SDS011;64245;51.282;22.494;2023-05-10T01:00:07;3.42;;;1.80;;
75649;SDS011;64245;51.282;22.494;2023-05-10T01:02:46;6.03;;;1.90;;
75649;SDS011;64245;51.282;22.494;2023-05-10T01:05:12;6.03;;;1.98;;
75649;SDS011;64245;51.282;22.494;2023-05-10T01:07:39;4.07;;;1.90;;
75649;SDS011;64245;51.282;22.494;2023-05-10T01:10:08;3.83;;;1.90;;
75649;SDS011;64245;51.282;22.494;2023-05-10T01:12:35;4.05;;;2.42;;
75649;SDS011;64245;51.282;22.494;2023-05-10T01:15:03;3.45;;;1.75;;
75649;SDS011;64245;51.282;22.494;2023-05-10T01:17:34;4.35;;;2.00;;
75649;SDS011;64245;51.282;22.494;2023-05-10T01:20:02;2.22;;;1.33;;
75649;SDS011;64245;51.282;22.494;2023-05-10T01:33:44;2.88;;;1.67;;
75649;SDS011;64245;51.282;22.494;2023-05-10T01:38:50;3.22;;;1.52;;
75649;SDS011;64245;51.282;22.494;2023-05-10T01:41:18;2.05;;;1.50;;
75649;SDS011;64245;51.282;22.494;2023-05-10T01:46:57;2.92;;;1.70;;
75649;SDS011;64245;51.282;22.494;2023-05-10T01:49:31;4.03;;;1.92;;
75649;SDS011;64245;51.282;22.494;2023-05-10T01:52:00;3.42;;;1.48;;
75649;SDS011;64245;51.282;22.494;2023-05-10T01:54:32;2.90;;;1.70;;
75649;SDS011;64245;51.282;22.494;2023-05-10T01:57:02;3.92;;;1.73;;
75649;SDS011;64245;51.282;22.494;2023-05-10T01:59:31;2.85;;;1.73;;
75649;SDS011;64245;51.282;22.494;2023-05-10T02:02:06;2.38;;;1.80;;
75649;SDS011;64245;51.282;22.494;2023-05-10T02:04:33;2.38;;;1.55;;
75649;SDS011;64245;51.282;22.494;2023-05-10T02:07:03;3.08;;;1.77;;
75649;SDS011;64245;51.282;22.494;2023-05-10T02:09:30;3.58;;;1.60;;
75649;SDS011;64245;51.282;22.494;2023-05-10T02:11:59;2.78;;;1.83;;
75649;SDS011;64245;51.282;22.494;2023-05-10T02:14:28;4.70;;;2.25;;
75649;SDS011;64245;51.282;22.494;2023-05-10T02:16:58;2.95;;;1.85;;
75649;SDS011;64245;51.282;22.494;2023-05-10T02:19:25;4.25;;;1.75;;
75649;SDS011;64245;51.282;22.494;2023-05-10T02:21:52;2.65;;;1.50;;
75649;SDS011;64245;51.282;22.494;2023-05-10T02:24:21;3.75;;;1.70;;
75649;SDS011;64245;51.282;22.494;2023-05-10T02:26:49;2.17;;;1.55;;
75649;SDS011;64245;51.282;22.494;2023-05-10T02:29:19;2.63;;;1.27;;
75649;SDS011;64245;51.282;22.494;2023-05-10T02:31:45;3.78;;;1.98;;
75649;SDS011;64245;51.282;22.494;2023-05-10T02:34:11;4.15;;;2.05;;
75649;SDS011;64245;51.282;22.494;2023-05-10T02:36:39;3.72;;;2.00;;
75649;SDS011;64245;51.282;22.494;2023-05-10T02:39:07;4.80;;;1.80;;
75649;SDS011;64245;51.282;22.494;2023-05-10T02:41:37;2.10;;;1.73;;
75649;SDS011;64245;51.282;22.494;2023-05-10T02:44:06;2.80;;;1.70;;
75649;SDS011;64245;51.282;22.494;2023-05-10T02:46:33;2.28;;;1.50;;
75649;SDS011;64245;51.282;22.494;2023-05-10T02:48:59;3.30;;;1.45;;
75649;SDS011;64245;51.282;22.494;2023-05-10T02:51:27;2.58;;;1.67;;
75649;SDS011;64245;51.282;22.494;2023-05-10T02:53:57;6.50;;;1.90;;
75649;SDS011;64245;51.282;22.494;2023-05-10T02:56:31;3.35;;;1.40;;
75649;SDS011;64245;51.282;22.494;2023-05-10T02:58:59;4.22;;;2.00;;
75649;SDS011;64245;51.282;22.494;2023-05-10T03:01:25;3.92;;;1.77;;
75649;SDS011;64245;51.282;22.494;2023-05-10T03:03:51;5.20;;;2.17;;
75649;SDS011;64245;51.282;22.494;2023-05-10T03:06:16;2.17;;;1.60;;
75649;SDS011;64245;51.282;22.494;2023-05-10T03:08:42;7.93;;;2.05;;
75649;SDS011;64245;51.282;22.494;2023-05-10T03:11:21;4.28;;;2.17;;
75649;SDS011;64245;51.282;22.494;2023-05-10T03:14:19;2.63;;;1.30;;
75649;SDS011;64245;51.282;22.494;2023-05-10T03:16:46;6.25;;;1.88;;
75649;SDS011;64245;51.282;22.494;2023-05-10T03:19:20;2.28;;;1.52;;
75649;SDS011;64245;51.282;22.494;2023-05-10T03:21:52;3.13;;;1.67;;
75649;SDS011;64245;51.282;22.494;2023-05-10T03:24:20;4.25;;;2.22;;
75649;SDS011;64245;51.282;22.494;2023-05-10T03:26:47;3.08;;;1.70;;
75649;SDS011;64245;51.282;22.494;2023-05-10T03:29:15;4.47;;;1.90;;
75649;SDS011;64245;51.282;22.494;2023-05-10T03:31:41;5.45;;;2.30;;
75649;SDS011;64245;51.282;22.494;2023-05-10T03:34:07;5.15;;;2.13;;
75649;SDS011;64245;51.282;22.494;2023-05-10T03:36:32;3.00;;;1.98;;
75649;SDS011;64245;51.282;22.494;2023-05-10T03:38:58;3.85;;;2.08;;
75649;SDS011;64245;51.282;22.494;2023-05-10T03:41:24;3.40;;;2.08;;
75649;SDS011;64245;51.282;22.494;2023-05-10T03:43:51;3.88;;;2.10;;
75649;SDS011;64245;51.282;22.494;2023-05-10T03:46:16;3.33;;;1.65;;
75649;SDS011;64245;51.282;22.494;2023-05-10T03:48:42;5.15;;;3.05;;
75649;SDS011;64245;51.282;22.494;2023-05-10T03:51:08;11.13;;;5.63;;
75649;SDS011;64245;51.282;22.494;2023-05-10T03:53:34;11.45;;;3.95;;
75649;SDS011;64245;51.282;22.494;2023-05-10T03:55:59;6.05;;;2.70;;
75649;SDS011;64245;51.282;22.494;2023-05-10T03:58:25;4.50;;;2.00;;
75649;SDS011;64245;51.282;22.494;2023-05-10T04:00:51;2.83;;;2.13;;
75649;SDS011;64245;51.282;22.494;2023-05-10T04:03:17;6.97;;;2.13;;
75649;SDS011;64245;51.282;22.494;2023-05-10T04:05:42;3.45;;;1.92;;
75649;SDS011;64245;51.282;22.494;2023-05-10T04:08:08;4.28;;;2.15;;
75649;SDS011;64245;51.282;22.494;2023-05-10T04:10:34;5.32;;;2.40;;
75649;SDS011;64245;51.282;22.494;2023-05-10T04:13:00;3.08;;;2.30;;
75649;SDS011;64245;51.282;22.494;2023-05-10T04:15:25;4.43;;;1.90;;
75649;SDS011;64245;51.282;22.494;2023-05-10T04:17:51;2.72;;;1.77;;
75649;SDS011;64245;51.282;22.494;2023-05-10T04:20:17;4.25;;;2.03;;
75649;SDS011;64245;51.282;22.494;2023-05-10T04:22:43;4.45;;;1.85;;
75649;SDS011;64245;51.282;22.494;2023-05-10T04:25:08;2.63;;;1.65;;
75649;SDS011;64245;51.282;22.494;2023-05-10T04:27:34;4.63;;;1.92;;
75649;SDS011;64245;51.282;22.494;2023-05-10T04:30:00;7.22;;;1.90;;
75649;SDS011;64245;51.282;22.494;2023-05-10T04:32:26;5.47;;;2.08;;
75649;SDS011;64245;51.282;22.494;2023-05-10T04:34:52;3.67;;;2.00;;
75649;SDS011;64245;51.282;22.494;2023-05-10T04:37:18;2.88;;;2.10;;
75649;SDS011;64245;51.282;22.494;2023-05-10T04:39:44;4.05;;;1.92;;
75649;SDS011;64245;51.282;22.494;2023-05-10T04:42:10;3.38;;;2.03;;
75649;SDS011;64245;51.282;22.494;2023-05-10T04:44:36;4.05;;;2.25;;
75649;SDS011;64245;51.282;22.494;2023-05-10T04:47:02;2.05;;;1.50;;
75649;SDS011;64245;51.282;22.494;2023-05-10T04:49:28;3.83;;;2.28;;
75649;SDS011;64245;51.282;22.494;2023-05-10T04:51:55;2.00;;;1.67;;
75649;SDS011;64245;51.282;22.494;2023-05-10T04:54:21;3.92;;;1.90;;
75649;SDS011;64245;51.282;22.494;2023-05-10T04:56:47;4.65;;;1.95;;
75649;SDS011;64245;51.282;22.494;2023-05-10T04:59:12;4.13;;;2.00;;
75649;SDS011;64245;51.282;22.494;2023-05-10T05:01:39;3.13;;;1.75;;
75649;SDS011;64245;51.282;22.494;2023-05-10T05:04:04;3.95;;;2.08;;
75649;SDS011;64245;51.282;22.494;2023-05-10T05:06:30;8.05;;;2.28;;
75649;SDS011;64245;51.282;22.494;2023-05-10T05:08:56;4.60;;;1.80;;
75649;SDS011;64245;51.282;22.494;2023-05-10T05:11:22;4.97;;;2.15;;
75649;SDS011;64245;51.282;22.494;2023-05-10T05:13:47;3.10;;;1.83;;
75649;SDS011;64245;51.282;22.494;2023-05-10T05:16:13;4.60;;;2.40;;
75649;SDS011;64245;51.282;22.494;2023-05-10T05:18:38;3.30;;;1.92;;
75649;SDS011;64245;51.282;22.494;2023-05-10T05:21:17;3.22;;;2.08;;
75649;SDS011;64245;51.282;22.494;2023-05-10T05:23:43;5.75;;;2.20;;
75649;SDS011;64245;51.282;22.494;2023-05-10T05:26:09;3.83;;;2.08;;
75649;SDS011;64245;51.282;22.494;2023-05-10T05:28:35;5.70;;;2.55;;
75649;SDS011;64245;51.282;22.494;2023-05-10T05:31:03;3.35;;;2.30;;
75649;SDS011;64245;51.282;22.494;2023-05-10T05:33:32;5.78;;;2.50;;
75649;SDS011;64245;51.282;22.494;2023-05-10T05:36:02;7.55;;;2.78;;
75649;SDS011;64245;51.282;22.494;2023-05-10T05:38:28;4.78;;;2.25;;
75649;SDS011;64245;51.282;22.494;2023-05-10T05:40:54;5.10;;;1.90;;
75649;SDS011;64245;51.282;22.494;2023-05-10T05:43:20;4.20;;;2.20;;
75649;SDS011;64245;51.282;22.494;2023-05-10T05:45:45;2.60;;;1.88;;
75649;SDS011;64245;51.282;22.494;2023-05-10T05:48:11;6.45;;;1.67;;
75649;SDS011;64245;51.282;22.494;2023-05-10T05:50:37;3.90;;;2.17;;
75649;SDS011;64245;51.282;22.494;2023-05-10T05:53:02;4.22;;;2.30;;
75649;SDS011;64245;51.282;22.494;2023-05-10T05:55:28;3.50;;;1.73;;
75649;SDS011;64245;51.282;22.494;2023-05-10T05:57:55;3.45;;;1.90;;
75649;SDS011;64245;51.282;22.494;2023-05-10T06:00:20;5.85;;;2.13;;
75649;SDS011;64245;51.282;22.494;2023-05-10T06:02:47;2.78;;;1.90;;
75649;SDS011;64245;51.282;22.494;2023-05-10T06:05:12;4.47;;;1.90;;
75649;SDS011;64245;51.282;22.494;2023-05-10T06:07:39;5.20;;;2.30;;
75649;SDS011;64245;51.282;22.494;2023-05-10T06:10:07;6.47;;;2.38;;
75649;SDS011;64245;51.282;22.494;2023-05-10T06:12:34;2.80;;;2.00;;
75649;SDS011;64245;51.282;22.494;2023-05-10T06:14:59;3.65;;;2.30;;
75649;SDS011;64245;51.282;22.494;2023-05-10T06:17:25;3.80;;;2.38;;
75649;SDS011;64245;51.282;22.494;2023-05-10T06:19:51;5.47;;;2.22;;
75649;SDS011;64245;51.282;22.494;2023-05-10T06:22:17;6.53;;;2.65;;
75649;SDS011;64245;51.282;22.494;2023-05-10T06:24:42;5.18;;;2.38;;
75649;SDS011;64245;51.282;22.494;2023-05-10T06:27:09;2.78;;;2.50;;
75649;SDS011;64245;51.282;22.494;2023-05-10T06:29:34;5.72;;;2.58;;
75649;SDS011;64245;51.282;22.494;2023-05-10T06:32:00;3.65;;;2.05;;
75649;SDS011;64245;51.282;22.494;2023-05-10T06:34:25;3.17;;;2.15;;
75649;SDS011;64245;51.282;22.494;2023-05-10T06:36:51;5.15;;;2.10;;
75649;SDS011;64245;51.282;22.494;2023-05-10T06:39:17;5.10;;;2.42;;
75649;SDS011;64245;51.282;22.494;2023-05-10T06:41:42;2.92;;;1.98;;
75649;SDS011;64245;51.282;22.494;2023-05-10T06:44:08;2.88;;;2.20;;
75649;SDS011;64245;51.282;22.494;2023-05-10T06:46:34;3.70;;;2.10;;
75649;SDS011;64245;51.282;22.494;2023-05-10T06:49:00;3.58;;;2.10;;
75649;SDS011;64245;51.282;22.494;2023-05-10T06:51:26;6.68;;;2.83;;
75649;SDS011;64245;51.282;22.494;2023-05-10T06:53:51;7.28;;;2.60;;
75649;SDS011;64245;51.282;22.494;2023-05-10T06:56:17;2.92;;;2.00;;
75649;SDS011;64245;51.282;22.494;2023-05-10T06:58:42;3.83;;;2.05;;
75649;SDS011;64245;51.282;22.494;2023-05-10T07:01:08;4.93;;;1.95;;
75649;SDS011;64245;51.282;22.494;2023-05-10T07:03:34;2.45;;;1.80;;
75649;SDS011;64245;51.282;22.494;2023-05-10T07:06:02;6.30;;;2.10;;
75649;SDS011;64245;51.282;22.494;2023-05-10T07:08:30;4.63;;;1.70;;
75649;SDS011;64245;51.282;22.494;2023-05-10T07:11:02;4.18;;;1.65;;
75649;SDS011;64245;51.282;22.494;2023-05-10T07:13:30;4.53;;;1.90;;
75649;SDS011;64245;51.282;22.494;2023-05-10T07:15:57;2.78;;;1.85;;
75649;SDS011;64245;51.282;22.494;2023-05-10T07:18:23;2.92;;;1.55;;
75649;SDS011;64245;51.282;22.494;2023-05-10T07:20:50;4.22;;;1.95;;
75649;SDS011;64245;51.282;22.494;2023-05-10T07:23:15;2.72;;;1.65;;
75649;SDS011;64245;51.282;22.494;2023-05-10T07:25:47;3.65;;;1.85;;
75649;SDS011;64245;51.282;22.494;2023-05-10T07:28:13;3.83;;;1.90;;
75649;SDS011;64245;51.282;22.494;2023-05-10T07:30:40;4.18;;;1.83;;
75649;SDS011;64245;51.282;22.494;2023-05-10T07:33:06;3.85;;;1.80;;
75649;SDS011;64245;51.282;22.494;2023-05-10T07:35:33;5.60;;;1.60;;
75649;SDS011;64245;51.282;22.494;2023-05-10T07:37:59;5.28;;;1.95;;
75649;SDS011;64245;51.282;22.494;2023-05-10T07:40:25;3.45;;;1.88;;
75649;SDS011;64245;51.282;22.494;2023-05-10T07:42:50;5.10;;;1.67;;
75649;SDS011;64245;51.282;22.494;2023-05-10T07:45:17;10.50;;;2.63;;
75649;SDS011;64245;51.282;22.494;2023-05-10T07:47:43;6.90;;;1.75;;
75649;SDS011;64245;51.282;22.494;2023-05-10T07:50:08;4.65;;;1.40;;
75649;SDS011;64245;51.282;22.494;2023-05-10T07:52:34;3.00;;;1.50;;
75649;SDS011;64245;51.282;22.494;2023-05-10T07:55:00;2.08;;;1.38;;
75649;SDS011;64245;51.282;22.494;2023-05-10T07:57:25;3.55;;;1.40;;
75649;SDS011;64245;51.282;22.494;2023-05-10T07:59:51;8.38;;;2.45;;
75649;SDS011;64245;51.282;22.494;2023-05-10T08:02:16;4.72;;;1.05;;
75649;SDS011;64245;51.282;22.494;2023-05-10T08:04:42;4.80;;;1.40;;
75649;SDS011;64245;51.282;22.494;2023-05-10T08:07:08;3.20;;;1.60;;
75649;SDS011;64245;51.282;22.494;2023-05-10T08:09:33;3.35;;;1.60;;
75649;SDS011;64245;51.282;22.494;2023-05-10T08:11:59;2.80;;;1.83;;
75649;SDS011;64245;51.282;22.494;2023-05-10T08:14:26;4.45;;;1.10;;
75649;SDS011;64245;51.282;22.494;2023-05-10T08:16:53;2.78;;;1.33;;
75649;SDS011;64245;51.282;22.494;2023-05-10T08:19:19;7.65;;;1.75;;
75649;SDS011;64245;51.282;22.494;2023-05-10T08:21:46;4.07;;;1.63;;
75649;SDS011;64245;51.282;22.494;2023-05-10T08:24:12;2.78;;;1.60;;
75649;SDS011;64245;51.282;22.494;2023-05-10T08:26:38;1.42;;;1.15;;
75649;SDS011;64245;51.282;22.494;2023-05-10T08:29:04;4.82;;;1.75;;
75649;SDS011;64245;51.282;22.494;2023-05-10T08:31:29;1.70;;;1.15;;
75649;SDS011;64245;51.282;22.494;2023-05-10T08:33:55;1.75;;;1.02;;
75649;SDS011;64245;51.282;22.494;2023-05-10T08:36:20;2.28;;;1.20;;
75649;SDS011;64245;51.282;22.494;2023-05-10T08:38:50;1.65;;;1.08;;
75649;SDS011;64245;51.282;22.494;2023-05-10T08:41:17;1.58;;;0.57;;
75649;SDS011;64245;51.282;22.494;2023-05-10T08:43:47;2.20;;;1.45;;
75649;SDS011;64245;51.282;22.494;2023-05-10T08:46:16;2.25;;;1.17;;
75649;SDS011;64245;51.282;22.494;2023-05-10T08:48:46;2.33;;;1.35;;
75649;SDS011;64245;51.282;22.494;2023-05-10T08:51:13;5.43;;;1.83;;
75649;SDS011;64245;51.282;22.494;2023-05-10T08:53:42;3.42;;;1.63;;
75649;SDS011;64245;51.282;22.494;2023-05-10T08:56:09;4.53;;;1.30;;
75649;SDS011;64245;51.282;22.494;2023-05-10T08:58:36;2.28;;;1.20;;
75649;SDS011;64245;51.282;22.494;2023-05-10T09:01:03;1.48;;;1.38;;
75649;SDS011;64245;51.282;22.494;2023-05-10T09:03:29;5.72;;;1.40;;
75649;SDS011;64245;51.282;22.494;2023-05-10T09:05:55;3.40;;;1.83;;
75649;SDS011;64245;51.282;22.494;2023-05-10T09:08:23;5.22;;;1.48;;
75649;SDS011;64245;51.282;22.494;2023-05-10T09:10:51;2.25;;;0.90;;
75649;SDS011;64245;51.282;22.494;2023-05-10T09:13:17;4.53;;;2.30;;
75649;SDS011;64245;51.282;22.494;2023-05-10T09:15:43;3.72;;;1.95;;
75649;SDS011;64245;51.282;22.494;2023-05-10T09:18:11;3.97;;;1.20;;
75649;SDS011;64245;51.282;22.494;2023-05-10T09:20:36;2.13;;;1.48;;
75649;SDS011;64245;51.282;22.494;2023-05-10T09:23:02;4.05;;;1.63;;
75649;SDS011;64245;51.282;22.494;2023-05-10T09:25:28;4.55;;;1.50;;
75649;SDS011;64245;51.282;22.494;2023-05-10T09:27:54;4.07;;;1.70;;
75649;SDS011;64245;51.282;22.494;2023-05-10T09:30:27;3.30;;;1.42;;
75649;SDS011;64245;51.282;22.494;2023-05-10T09:32:54;3.47;;;1.23;;
75649;SDS011;64245;51.282;22.494;2023-05-10T09:35:23;2.10;;;1.00;;
75649;SDS011;64245;51.282;22.494;2023-05-10T09:37:52;3.97;;;1.50;;
75649;SDS011;64245;51.282;22.494;2023-05-10T09:40:20;2.03;;;1.20;;
75649;SDS011;64245;51.282;22.494;2023-05-10T09:42:51;2.42;;;1.38;;
75649;SDS011;64245;51.282;22.494;2023-05-10T09:45:24;3.00;;;1.73;;
75649;SDS011;64245;51.282;22.494;2023-05-10T09:47:54;2.40;;;1.23;;
75649;SDS011;64245;51.282;22.494;2023-05-10T09:50:20;2.03;;;1.30;;
75649;SDS011;64245;51.282;22.494;2023-05-10T09:53:00;3.05;;;1.50;;
75649;SDS011;64245;51.282;22.494;2023-05-10T09:55:38;1.73;;;1.15;;
75649;SDS011;64245;51.282;22.494;2023-05-10T09:58:06;2.83;;;1.23;;
75649;SDS011;64245;51.282;22.494;2023-05-10T10:00:36;6.18;;;1.58;;
75649;SDS011;64245;51.282;22.494;2023-05-10T10:03:03;3.30;;;1.40;;
75649;SDS011;64245;51.282;22.494;2023-05-10T10:05:30;2.40;;;1.15;;
75649;SDS011;64245;51.282;22.494;2023-05-10T10:07:58;2.88;;;1.25;;
75649;SDS011;64245;51.282;22.494;2023-05-10T10:10:24;2.05;;;1.25;;
75649;SDS011;64245;51.282;22.494;2023-05-10T10:12:51;2.83;;;1.38;;
75649;SDS011;64245;51.282;22.494;2023-05-10T10:15:17;2.60;;;1.30;;
75649;SDS011;64245;51.282;22.494;2023-05-10T10:17:45;2.08;;;1.27;;
75649;SDS011;64245;51.282;22.494;2023-05-10T10:20:11;2.70;;;1.38;;
75649;SDS011;64245;51.282;22.494;2023-05-10T10:22:37;3.75;;;1.38;;
75649;SDS011;64245;51.282;22.494;2023-05-10T10:25:03;4.60;;;1.67;;
75649;SDS011;64245;51.282;22.494;2023-05-10T10:33:06;2.25;;;1.20;;
75649;SDS011;64245;51.282;22.494;2023-05-10T10:35:36;2.10;;;1.40;;
75649;SDS011;64245;51.282;22.494;2023-05-10T10:38:02;3.80;;;1.17;;
75649;SDS011;64245;51.282;22.494;2023-05-10T10:40:31;2.17;;;1.45;;
75649;SDS011;64245;51.282;22.494;2023-05-10T10:48:35;3.28;;;1.42;;
75649;SDS011;64245;51.282;22.494;2023-05-10T10:51:00;4.65;;;1.58;;
75649;SDS011;64245;51.282;22.494;2023-05-10T10:53:27;2.22;;;1.40;;
75649;SDS011;64245;51.282;22.494;2023-05-10T10:56:28;3.38;;;1.70;;
75649;SDS011;64245;51.282;22.494;2023-05-10T10:58:49;2.50;;;1.27;;
75649;SDS011;64245;51.282;22.494;2023-05-10T11:01:18;3.58;;;1.38;;
75649;SDS011;64245;51.282;22.494;2023-05-10T11:06:29;6.97;;;1.55;;
75649;SDS011;64245;51.282;22.494;2023-05-10T11:08:59;2.10;;;1.60;;
75649;SDS011;64245;51.282;22.494;2023-05-10T11:11:31;3.03;;;1.40;;
75649;SDS011;64245;51.282;22.494;2023-05-10T11:14:02;2.22;;;1.30;;
75649;SDS011;64245;51.282;22.494;2023-05-10T11:16:28;3.45;;;1.33;;
75649;SDS011;64245;51.282;22.494;2023-05-10T11:19:07;2.22;;;1.33;;
75649;SDS011;64245;51.282;22.494;2023-05-10T11:21:43;4.40;;;1.55;;
75649;SDS011;64245;51.282;22.494;2023-05-10T11:24:18;4.57;;;1.40;;
75649;SDS011;64245;51.282;22.494;2023-05-10T11:26:45;5.32;;;1.63;;
75649;SDS011;64245;51.282;22.494;2023-05-10T11:29:12;2.67;;;1.42;;
75649;SDS011;64245;51.282;22.494;2023-05-10T11:31:42;4.70;;;1.40;;
75649;SDS011;64245;51.282;22.494;2023-05-10T11:34:22;1.58;;;1.17;;
75649;SDS011;64245;51.282;22.494;2023-05-10T11:36:55;3.78;;;1.38;;
75649;SDS011;64245;51.282;22.494;2023-05-10T11:39:25;2.50;;;1.50;;
75649;SDS011;64245;51.282;22.494;2023-05-10T11:41:54;6.30;;;1.60;;
75649;SDS011;64245;51.282;22.494;2023-05-10T11:44:20;2.58;;;1.27;;
75649;SDS011;64245;51.282;22.494;2023-05-10T11:46:45;2.13;;;1.40;;
75649;SDS011;64245;51.282;22.494;2023-05-10T11:49:11;1.98;;;1.30;;
75649;SDS011;64245;51.282;22.494;2023-05-10T11:51:38;3.08;;;1.20;;
75649;SDS011;64245;51.282;22.494;2023-05-10T11:54:08;3.97;;;1.20;;
75649;SDS011;64245;51.282;22.494;2023-05-10T11:56:35;2.72;;;1.20;;
75649;SDS011;64245;51.282;22.494;2023-05-10T11:59:02;4.53;;;1.25;;
75649;SDS011;64245;51.282;22.494;2023-05-10T12:01:28;2.25;;;1.30;;
75649;SDS011;64245;51.282;22.494;2023-05-10T12:03:55;3.13;;;1.40;;
75649;SDS011;64245;51.282;22.494;2023-05-10T12:06:26;3.60;;;1.65;;
75649;SDS011;64245;51.282;22.494;2023-05-10T12:08:56;3.70;;;1.35;;
75649;SDS011;64245;51.282;22.494;2023-05-10T12:11:26;7.03;;;1.70;;
75649;SDS011;64245;51.282;22.494;2023-05-10T12:13:53;4.28;;;1.30;;
75649;SDS011;64245;51.282;22.494;2023-05-10T12:16:20;3.30;;;1.13;;
75649;SDS011;64245;51.282;22.494;2023-05-10T12:18:55;3.13;;;1.58;;
75649;SDS011;64245;51.282;22.494;2023-05-10T12:21:21;5.03;;;1.23;;
75649;SDS011;64245;51.282;22.494;2023-05-10T12:23:51;2.92;;;1.48;;
75649;SDS011;64245;51.282;22.494;2023-05-10T12:26:22;3.00;;;1.13;;
75649;SDS011;64245;51.282;22.494;2023-05-10T12:28:55;2.90;;;1.00;;
75649;SDS011;64245;51.282;22.494;2023-05-10T12:31:53;5.13;;;1.10;;
75649;SDS011;64245;51.282;22.494;2023-05-10T12:34:24;2.72;;;1.20;;
75649;SDS011;64245;51.282;22.494;2023-05-10T12:36:53;2.47;;;1.50;;
75649;SDS011;64245;51.282;22.494;2023-05-10T12:39:19;1.35;;;1.13;;
75649;SDS011;64245;51.282;22.494;2023-05-10T12:41:45;3.17;;;2.03;;
75649;SDS011;64245;51.282;22.494;2023-05-10T12:44:10;2.75;;;1.35;;
75649;SDS011;64245;51.282;22.494;2023-05-10T12:46:36;2.90;;;1.40;;
75649;SDS011;64245;51.282;22.494;2023-05-10T12:49:02;1.85;;;1.33;;
75649;SDS011;64245;51.282;22.494;2023-05-10T12:51:27;7.93;;;1.38;;
75649;SDS011;64245;51.282;22.494;2023-05-10T12:53:53;2.03;;;1.10;;
75649;SDS011;64245;51.282;22.494;2023-05-10T12:56:19;5.18;;;1.63;;
75649;SDS011;64245;51.282;22.494;2023-05-10T12:58:45;4.97;;;1.30;;
75649;SDS011;64245;51.282;22.494;2023-05-10T13:01:14;1.65;;;1.10;;
75649;SDS011;64245;51.282;22.494;2023-05-10T13:03:40;1.83;;;1.20;;
75649;SDS011;64245;51.282;22.494;2023-05-10T13:06:05;4.18;;;1.25;;
75649;SDS011;64245;51.282;22.494;2023-05-10T13:08:31;2.67;;;1.15;;
75649;SDS011;64245;51.282;22.494;2023-05-10T13:11:02;3.85;;;1.58;;
75649;SDS011;64245;51.282;22.494;2023-05-10T13:13:28;2.28;;;1.30;;
75649;SDS011;64245;51.282;22.494;2023-05-10T13:15:53;2.72;;;1.25;;
75649;SDS011;64245;51.282;22.494;2023-05-10T13:18:19;2.80;;;1.27;;
75649;SDS011;64245;51.282;22.494;2023-05-10T13:20:45;2.83;;;1.38;;
75649;SDS011;64245;51.282;22.494;2023-05-10T13:23:11;2.58;;;1.20;;
75649;SDS011;64245;51.282;22.494;2023-05-10T13:25:37;3.28;;;1.30;;
75649;SDS011;64245;51.282;22.494;2023-05-10T13:28:03;4.53;;;1.40;;
75649;SDS011;64245;51.282;22.494;2023-05-10T13:30:28;4.10;;;1.30;;
75649;SDS011;64245;51.282;22.494;2023-05-10T13:32:54;3.13;;;1.27;;
75649;SDS011;64245;51.282;22.494;2023-05-10T13:35:20;2.67;;;1.75;;
75649;SDS011;64245;51.282;22.494;2023-05-10T13:37:46;2.38;;;1.25;;
75649;SDS011;64245;51.282;22.494;2023-05-10T13:40:11;1.35;;;1.02;;
75649;SDS011;64245;51.282;22.494;2023-05-10T13:42:37;3.92;;;1.45;;
75649;SDS011;64245;51.282;22.494;2023-05-10T13:45:03;2.30;;;1.60;;
75649;SDS011;64245;51.282;22.494;2023-05-10T13:47:29;5.20;;;2.10;;
75649;SDS011;64245;51.282;22.494;2023-05-10T13:49:56;4.55;;;1.95;;
75649;SDS011;64245;51.282;22.494;2023-05-10T13:52:22;5.00;;;1.85;;
75649;SDS011;64245;51.282;22.494;2023-05-10T13:54:48;3.85;;;1.90;;
75649;SDS011;64245;51.282;22.494;2023-05-10T13:57:14;3.15;;;1.30;;
75649;SDS011;64245;51.282;22.494;2023-05-10T13:59:42;4.07;;;1.30;;
75649;SDS011;64245;51.282;22.494;2023-05-10T14:02:08;4.15;;;1.83;;
75649;SDS011;64245;51.282;22.494;2023-05-10T14:04:34;4.80;;;1.83;;
75649;SDS011;64245;51.282;22.494;2023-05-10T14:07:00;4.65;;;1.77;;
75649;SDS011;64245;51.282;22.494;2023-05-10T14:09:27;3.72;;;1.50;;
75649;SDS011;64245;51.282;22.494;2023-05-10T14:11:53;3.28;;;1.40;;
75649;SDS011;64245;51.282;22.494;2023-05-10T14:14:19;10.75;;;1.67;;
75649;SDS011;64245;51.282;22.494;2023-05-10T14:16:45;2.17;;;1.50;;
75649;SDS011;64245;51.282;22.494;2023-05-10T14:19:11;2.72;;;1.58;;
75649;SDS011;64245;51.282;22.494;2023-05-10T14:21:37;1.90;;;1.70;;
75649;SDS011;64245;51.282;22.494;2023-05-10T14:24:03;2.03;;;1.15;;
75649;SDS011;64245;51.282;22.494;2023-05-10T14:26:29;2.80;;;1.48;;
75649;SDS011;64245;51.282;22.494;2023-05-10T14:28:55;6.38;;;1.50;;
75649;SDS011;64245;51.282;22.494;2023-05-10T14:31:21;6.43;;;2.30;;
75649;SDS011;64245;51.282;22.494;2023-05-10T14:33:48;3.13;;;1.25;;
75649;SDS011;64245;51.282;22.494;2023-05-10T14:36:14;3.75;;;1.40;;
75649;SDS011;64245;51.282;22.494;2023-05-10T14:38:40;2.40;;;1.27;;
75649;SDS011;64245;51.282;22.494;2023-05-10T14:41:06;2.75;;;1.45;;
75649;SDS011;64245;51.282;22.494;2023-05-10T14:43:32;3.97;;;1.25;;
75649;SDS011;64245;51.282;22.494;2023-05-10T14:45:57;3.47;;;1.40;;
75649;SDS011;64245;51.282;22.494;2023-05-10T14:48:23;5.15;;;1.20;;
75649;SDS011;64245;51.282;22.494;2023-05-10T14:50:49;1.38;;;1.20;;
75649;SDS011;64245;51.282;22.494;2023-05-10T14:56:03;1.73;;;1.40;;
75649;SDS011;64245;51.282;22.494;2023-05-10T14:58:29;3.30;;;1.58;;
75649;SDS011;64245;51.282;22.494;2023-05-10T15:00:57;4.35;;;1.27;;
75649;SDS011;64245;51.282;22.494;2023-05-10T15:03:23;4.32;;;1.35;;
75649;SDS011;64245;51.282;22.494;2023-05-10T15:05:50;3.38;;;1.20;;
75649;SDS011;64245;51.282;22.494;2023-05-10T15:08:17;4.57;;;1.20;;